LFPM 291200Z AUTO VRB03KT 9999 SCT019/// BKN064/// BKN086/// ///TCU 13/09 Q1003